Time;durP1;ratioP1;P1;durP2;ratioP2;P2;SDS_P1;SDS_P2;PMS_P1;PMS_P2;Temp;Humidity;BMP_temperature;BMP_pressure;BME280_temperature;BME280_humidity;BME280_pressure;Samples;Min_cycle;Max_cycle;Signal;HPM_P1;HPM_P2
2023/06/14 00:01:46;;;;;;;;;;;17.50;94.80;;;;;;5094377;28;20024;-65
2023/06/14 00:04:12;;;;;;;;;;;17.50;94.80;;;;;;5093998;28;20021;-64
2023/06/14 00:06:38;;;;;;;;;;;17.50;94.90;;;;;;5094182;28;20095;-65
2023/06/14 00:09:04;;;;;;;;;;;17.50;95.10;;;;;;5094329;28;20080;-64
2023/06/14 00:11:33;;;;;;;;;;;17.50;95.00;;;;;;5094093;28;20100;-65
2023/06/14 00:13:58;;;;;;;;;;;17.50;94.90;;;;;;5094238;28;19981;-65
2023/06/14 00:16:24;;;;;;;;;;;17.50;95.00;;;;;;5094114;28;20450;-65
2023/06/14 00:18:51;;;;;;;;;;;17.50;95.10;;;;;;5094015;28;19981;-65
2023/06/14 00:21:17;;;;;;;;;;;17.40;95.00;;;;;;5094075;28;19988;-64
2023/06/14 00:23:43;;;;;;;;;;;17.40;95.00;;;;;;5093786;28;19993;-64
2023/06/14 00:26:08;;;;;;;;;;;17.40;95.00;;;;;;5094178;28;20077;-64
2023/06/14 00:28:34;;;;;;;;;;;17.30;95.10;;;;;;5094228;28;19985;-65
2023/06/14 00:30:59;;;;;;;;;;;17.20;95.20;;;;;;5093882;28;20435;-64
2023/06/14 00:33:25;;;;;;;;;;;17.20;95.40;;;;;;5093857;28;20389;-64
2023/06/14 00:35:53;;;;;;;;;;;17.20;95.50;;;;;;5094207;28;20557;-66
2023/06/14 00:38:19;;;;;;;;;;;17.20;95.30;;;;;;5093840;28;20093;-65
2023/06/14 00:40:45;;;;;;;;;;;17.10;95.50;;;;;;5093888;28;20448;-64
2023/06/14 00:43:10;;;;;;;;;;;17.00;95.70;;;;;;5093858;28;20014;-63
2023/06/14 00:45:36;;;;;;;;;;;17.00;95.90;;;;;;5093793;28;20013;-64
2023/06/14 00:48:02;;;;;;;;;;;17.10;95.80;;;;;;5093709;28;20381;-64
2023/06/14 00:50:29;;;;;;;;;;;17.10;95.80;;;;;;5097122;28;19981;-65
2023/06/14 00:52:55;;;;;;;;;;;17.10;95.70;;;;;;5097876;28;19981;-64
2023/06/14 00:55:21;;;;;;;;;;;17.10;96.10;;;;;;5097947;28;20418;-64
2023/06/14 00:57:47;;;;;;;;;;;17.00;96.30;;;;;;5097850;28;20069;-64
2023/06/14 01:00:13;;;;;;;;;;;16.90;96.10;;;;;;5097883;28;19981;-63
2023/06/14 01:02:38;;;;;;;;;;;16.90;96.40;;;;;;5097538;28;20429;-64
2023/06/14 01:05:06;;;;;;;;;;;16.90;96.40;;;;;;5097490;28;20103;-65
2023/06/14 01:07:35;;;;;;;;;;;16.80;96.10;;;;;;5097511;28;19981;-65
2023/06/14 01:10:10;;;;;;;;;;;16.70;96.20;;;;;;5097581;28;20447;-64
2023/06/14 01:12:39;;;;;;;;;;;16.80;96.20;;;;;;5097556;28;20015;-64
2023/06/14 01:15:05;;;;;;;;;;;16.80;96.40;;;;;;5097674;28;19982;-64
2023/06/14 01:17:31;;;;;;;;;;;16.80;96.60;;;;;;5097435;28;20416;-64
2023/06/14 01:20:06;;;;;;;;;;;16.80;96.30;;;;;;5097193;28;20371;-64
2023/06/14 01:22:32;;;;;;;;;;;16.80;96.40;;;;;;5097674;28;20079;-65
2023/06/14 01:24:58;;;;;;;;;;;16.70;96.50;;;;;;5097238;28;20450;-65
2023/06/14 01:27:24;;;;;;;;;;;16.70;96.60;;;;;;5097295;28;19988;-65
2023/06/14 01:29:51;;;;;;;;;;;16.70;97.00;;;;;;5097336;28;20075;-65
2023/06/14 01:32:17;;;;;;;;;;;16.80;97.00;;;;;;5097284;28;19982;-65
2023/06/14 01:34:43;;;;;;;;;;;16.80;96.80;;;;;;5095672;28;20389;-65
2023/06/14 01:37:10;;;;;;;;;;;16.80;97.10;;;;;;5097083;28;19985;-64
2023/06/14 01:39:35;;;;;;;;;;;16.90;97.10;;;;;;5097109;28;19981;-65
2023/06/14 01:42:01;;;;;;;;;;;16.90;97.30;;;;;;5096908;28;20008;-65
2023/06/14 01:44:27;;;;;;;;;;;17.00;97.20;;;;;;5096940;28;20103;-63
2023/06/14 01:46:53;;;;;;;;;;;17.00;97.10;;;;;;5096948;28;19982;-65
2023/06/14 01:49:20;;;;;;;;;;;16.90;97.00;;;;;;5096643;28;19981;-65
2023/06/14 01:51:45;;;;;;;;;;;17.00;97.10;;;;;;5096986;28;20027;-65
2023/06/14 01:54:11;;;;;;;;;;;17.00;97.00;;;;;;5096795;28;19981;-64
2023/06/14 01:56:37;;;;;;;;;;;17.00;97.00;;;;;;5096703;28;19981;-66
2023/06/14 01:59:02;;;;;;;;;;;17.00;97.20;;;;;;5096797;28;19985;-65
2023/06/14 02:01:28;;;;;;;;;;;16.90;97.00;;;;;;5095939;28;20067;-64
2023/06/14 02:03:54;;;;;;;;;;;16.90;97.50;;;;;;5096209;28;20064;-64
2023/06/14 02:06:19;;;;;;;;;;;16.90;97.80;;;;;;5096770;28;20001;-64
2023/06/14 02:08:45;;;;;;;;;;;16.80;98.20;;;;;;5096794;28;19992;-64
2023/06/14 02:11:10;;;;;;;;;;;16.90;98.20;;;;;;5096469;28;20347;-65
2023/06/14 02:13:36;;;;;;;;;;;16.90;98.00;;;;;;5096356;28;20035;-64
2023/06/14 02:16:01;;;;;;;;;;;16.90;98.00;;;;;;5096357;28;19981;-65
2023/06/14 02:18:27;;;;;;;;;;;16.90;97.80;;;;;;5096188;28;19988;-65
2023/06/14 02:20:53;;;;;;;;;;;16.90;97.20;;;;;;5096251;28;20090;-64
2023/06/14 02:23:18;;;;;;;;;;;17.00;97.30;;;;;;5096173;28;20609;-64
2023/06/14 02:25:45;;;;;;;;;;;17.00;97.30;;;;;;5096166;28;20100;-65
2023/06/14 02:28:11;;;;;;;;;;;17.00;97.60;;;;;;5096016;28;19993;-64
2023/06/14 02:30:37;;;;;;;;;;;17.00;97.80;;;;;;5096242;28;19981;-64
2023/06/14 02:33:02;;;;;;;;;;;17.00;97.60;;;;;;5095967;28;20028;-63
2023/06/14 02:35:29;;;;;;;;;;;17.10;97.90;;;;;;5096314;28;19985;-64
2023/06/14 02:37:55;;;;;;;;;;;17.10;97.10;;;;;;5096015;28;20030;-64
2023/06/14 02:40:21;;;;;;;;;;;17.10;96.70;;;;;;5095948;28;20436;-65
2023/06/14 02:42:46;;;;;;;;;;;17.00;96.60;;;;;;5095919;28;20003;-64
2023/06/14 02:45:12;;;;;;;;;;;17.00;96.50;;;;;;5095730;28;20012;-64
2023/06/14 02:47:37;;;;;;;;;;;17.00;96.40;;;;;;5095740;28;20503;-64
2023/06/14 02:50:03;;;;;;;;;;;17.00;96.50;;;;;;5095758;28;20347;-65
2023/06/14 02:52:29;;;;;;;;;;;17.00;96.60;;;;;;5095646;28;20010;-64
2023/06/14 02:54:54;;;;;;;;;;;17.00;96.80;;;;;;5095671;28;19981;-64
2023/06/14 02:57:20;;;;;;;;;;;17.00;96.90;;;;;;5095603;28;19988;-63
2023/06/14 02:59:46;;;;;;;;;;;16.90;97.10;;;;;;5096057;28;19981;-64
2023/06/14 03:02:11;;;;;;;;;;;16.90;97.10;;;;;;5095150;28;19981;-63
2023/06/14 03:04:37;;;;;;;;;;;16.90;96.70;;;;;;5095376;28;20103;-64
2023/06/14 03:07:09;;;;;;;;;;;16.90;96.50;;;;;;5095402;28;19985;-65
2023/06/14 03:09:35;;;;;;;;;;;16.90;96.60;;;;;;5095388;28;19981;-65
2023/06/14 03:12:02;;;;;;;;;;;16.80;96.80;;;;;;5094916;28;20423;-64
2023/06/14 03:14:29;;;;;;;;;;;16.80;97.00;;;;;;5094698;28;19989;-65
2023/06/14 03:16:56;;;;;;;;;;;16.70;97.00;;;;;;5095303;28;20013;-65
2023/06/14 03:19:22;;;;;;;;;;;16.70;97.00;;;;;;5095161;28;19981;-64
2023/06/14 03:21:48;;;;;;;;;;;16.70;96.90;;;;;;5095134;28;20346;-65
2023/06/14 03:24:16;;;;;;;;;;;16.70;97.30;;;;;;5095135;28;20107;-63
2023/06/14 03:26:41;;;;;;;;;;;16.70;97.20;;;;;;5095058;28;20435;-65
2023/06/14 03:29:07;;;;;;;;;;;16.60;97.50;;;;;;5095069;28;20027;-65
2023/06/14 03:31:34;;;;;;;;;;;16.60;97.90;;;;;;5094687;28;19981;-65
2023/06/14 03:34:00;;;;;;;;;;;16.60;98.10;;;;;;5094898;28;19988;-65
2023/06/14 03:36:26;;;;;;;;;;;16.60;98.20;;;;;;5094961;28;19982;-64
2023/06/14 03:38:51;;;;;;;;;;;16.70;98.20;;;;;;5094703;28;20379;-65
2023/06/14 03:41:17;;;;;;;;;;;16.70;98.20;;;;;;5094732;28;19986;-64
2023/06/14 03:43:42;;;;;;;;;;;16.80;98.30;;;;;;5094648;28;19995;-64
2023/06/14 03:46:08;;;;;;;;;;;16.80;98.50;;;;;;5094461;28;20400;-64
2023/06/14 03:48:33;;;;;;;;;;;16.80;97.90;;;;;;5094641;28;20054;-65
2023/06/14 03:50:59;;;;;;;;;;;16.80;98.00;;;;;;5094538;28;20054;-64
2023/06/14 03:53:25;;;;;;;;;;;16.80;98.10;;;;;;5094468;28;20004;-63
2023/06/14 03:55:52;;;;;;;;;;;16.90;98.10;;;;;;5094625;28;19988;-64
2023/06/14 03:58:18;;;;;;;;;;;17.00;98.00;;;;;;5094467;28;19988;-65
2023/06/14 04:00:43;;;;;;;;;;;17.10;98.00;;;;;;5094216;28;20084;-64
2023/06/14 04:03:09;;;;;;;;;;;17.10;97.60;;;;;;5094174;28;20021;-64
2023/06/14 04:05:35;;;;;;;;;;;17.20;97.50;;;;;;5094087;28;20013;-65
2023/06/14 04:08:01;;;;;;;;;;;17.20;97.40;;;;;;5094296;28;20004;-65
2023/06/14 04:10:27;;;;;;;;;;;17.20;97.40;;;;;;5094167;28;20444;-65
2023/06/14 04:12:52;;;;;;;;;;;17.20;97.10;;;;;;5092882;28;20018;-64
2023/06/14 04:15:18;;;;;;;;;;;17.30;97.00;;;;;;5094083;28;20011;-64
2023/06/14 04:17:44;;;;;;;;;;;17.40;97.20;;;;;;5094099;28;19988;-65
2023/06/14 04:20:10;;;;;;;;;;;17.40;97.10;;;;;;5094104;28;20332;-64
2023/06/14 04:22:36;;;;;;;;;;;17.50;97.00;;;;;;5094196;28;20020;-64
2023/06/14 04:25:01;;;;;;;;;;;17.60;96.40;;;;;;5093630;28;20427;-65
2023/06/14 04:27:28;;;;;;;;;;;17.60;96.60;;;;;;5094044;28;19981;-65
2023/06/14 04:29:57;;;;;;;;;;;17.70;96.30;;;;;;5094064;28;19984;-64
2023/06/14 04:32:25;;;;;;;;;;;17.70;96.00;;;;;;5093924;28;19989;-64
2023/06/14 04:34:53;;;;;;;;;;;17.80;96.30;;;;;;5093939;28;19981;-65
2023/06/14 04:37:20;;;;;;;;;;;17.80;96.30;;;;;;5093970;28;20098;-65
2023/06/14 04:39:47;;;;;;;;;;;17.90;96.40;;;;;;5094075;28;19992;-66
2023/06/14 04:42:14;;;;;;;;;;;17.90;96.50;;;;;;5093931;28;19985;-64
2023/06/14 04:44:43;;;;;;;;;;;17.90;96.40;;;;;;5094085;28;20013;-65
2023/06/14 04:47:12;;;;;;;;;;;18.00;96.10;;;;;;5093698;28;20104;-65
2023/06/14 04:49:38;;;;;;;;;;;18.00;96.70;;;;;;5094041;28;20439;-65
2023/06/14 04:52:04;;;;;;;;;;;18.10;96.90;;;;;;5093755;28;20035;-65
2023/06/14 04:54:31;;;;;;;;;;;18.20;96.50;;;;;;5093622;28;19986;-64
2023/06/14 04:56:57;;;;;;;;;;;18.20;96.70;;;;;;5093729;28;19988;-65
2023/06/14 04:59:25;;;;;;;;;;;18.20;96.10;;;;;;5078353;28;20087;-65
2023/06/14 05:01:51;;;;;;;;;;;18.20;95.60;;;;;;5079410;28;20076;-64
2023/06/14 05:04:17;;;;;;;;;;;18.30;95.60;;;;;;5081532;28;20122;-63
2023/06/14 05:06:45;;;;;;;;;;;18.40;96.10;;;;;;5073802;28;20395;-64
2023/06/14 05:09:11;;;;;;;;;;;18.40;95.60;;;;;;5076419;28;19985;-64
2023/06/14 05:11:36;;;;;;;;;;;18.50;95.60;;;;;;5093533;28;20023;-65
2023/06/14 05:14:02;;;;;;;;;;;18.50;95.60;;;;;;5093561;28;20013;-63
2023/06/14 05:16:29;;;;;;;;;;;18.60;95.40;;;;;;5093138;28;19981;-64
2023/06/14 05:18:55;;;;;;;;;;;18.60;95.00;;;;;;5084661;28;19985;-64
2023/06/14 05:21:20;;;;;;;;;;;18.60;94.90;;;;;;5080611;28;20489;-64
2023/06/14 05:23:46;;;;;;;;;;;18.50;94.80;;;;;;5078165;28;19989;-65
2023/06/14 05:26:11;;;;;;;;;;;18.60;95.30;;;;;;5073016;28;19989;-65
2023/06/14 05:28:37;;;;;;;;;;;18.50;95.20;;;;;;5072611;28;19990;-64
2023/06/14 05:31:02;;;;;;;;;;;18.40;95.50;;;;;;5072303;28;19997;-63
2023/06/14 05:33:28;;;;;;;;;;;18.30;95.80;;;;;;5071121;28;20050;-64
2023/06/14 05:35:54;;;;;;;;;;;18.30;95.40;;;;;;5071662;28;19982;-64
2023/06/14 05:38:19;;;;;;;;;;;18.40;95.20;;;;;;5074809;28;19985;-64
2023/06/14 05:40:45;;;;;;;;;;;18.50;95.50;;;;;;5075067;28;20116;-66
2023/06/14 05:43:10;;;;;;;;;;;18.60;96.10;;;;;;5074618;28;20379;-64
2023/06/14 05:45:36;;;;;;;;;;;18.60;95.80;;;;;;5074973;28;20092;-66
2023/06/14 05:48:01;;;;;;;;;;;18.50;96.40;;;;;;5074911;28;19989;-66
2023/06/14 05:50:27;;;;;;;;;;;18.60;96.70;;;;;;5075349;28;19982;-64
2023/06/14 05:52:53;;;;;;;;;;;18.60;96.40;;;;;;5074859;28;20028;-66
2023/06/14 05:55:19;;;;;;;;;;;18.70;96.10;;;;;;5075030;28;20436;-66
2023/06/14 05:57:44;;;;;;;;;;;18.80;96.10;;;;;;5075350;28;20117;-66
2023/06/14 06:00:11;;;;;;;;;;;18.70;96.20;;;;;;5075908;28;20043;-63
2023/06/14 06:02:36;;;;;;;;;;;18.80;95.70;;;;;;5075805;28;20467;-65
2023/06/14 06:05:02;;;;;;;;;;;18.90;95.60;;;;;;5075889;28;20017;-65
2023/06/14 06:07:28;;;;;;;;;;;19.00;95.50;;;;;;5076136;28;20028;-64
2023/06/14 06:09:53;;;;;;;;;;;19.10;95.70;;;;;;5075854;28;20025;-65
2023/06/14 06:12:19;;;;;;;;;;;19.10;95.60;;;;;;5075832;28;19999;-67
2023/06/14 06:14:44;;;;;;;;;;;19.20;95.10;;;;;;5084485;28;19985;-64
2023/06/14 06:17:10;;;;;;;;;;;19.20;94.60;;;;;;5096102;28;20397;-64
2023/06/14 06:19:36;;;;;;;;;;;19.20;94.60;;;;;;5096674;28;20384;-65
2023/06/14 06:22:01;;;;;;;;;;;19.20;95.60;;;;;;5096024;28;20017;-65
2023/06/14 06:24:27;;;;;;;;;;;19.20;95.50;;;;;;5096203;28;20009;-66
2023/06/14 06:26:52;;;;;;;;;;;19.30;94.90;;;;;;5095894;28;20024;-66
2023/06/14 06:29:18;;;;;;;;;;;19.30;95.10;;;;;;5094822;28;20424;-66
2023/06/14 06:31:45;;;;;;;;;;;19.30;95.50;;;;;;5096074;28;20086;-66
2023/06/14 06:34:10;;;;;;;;;;;19.40;96.20;;;;;;5096211;28;19988;-66
2023/06/14 06:36:36;;;;;;;;;;;19.30;95.80;;;;;;5095802;28;19981;-65
2023/06/14 06:39:08;;;;;;;;;;;19.40;95.80;;;;;;5095996;28;19982;-64
2023/06/14 06:41:36;;;;;;;;;;;19.40;96.00;;;;;;5094934;28;20034;-66
2023/06/14 06:44:02;;;;;;;;;;;19.50;95.50;;;;;;5094485;28;20055;-65
2023/06/14 06:46:27;;;;;;;;;;;19.60;95.90;;;;;;5094152;28;19985;-66
2023/06/14 06:48:53;;;;;;;;;;;19.60;96.40;;;;;;5093859;28;20401;-64
2023/06/14 06:51:18;;;;;;;;;;;19.70;96.20;;;;;;5093501;28;20007;-65
2023/06/14 06:53:51;;;;;;;;;;;19.80;96.40;;;;;;5093993;28;20396;-64
2023/06/14 06:56:17;;;;;;;;;;;19.90;96.30;;;;;;5093994;28;19988;-65
2023/06/14 06:58:42;;;;;;;;;;;20.00;95.20;;;;;;5092754;28;19981;-65
2023/06/14 07:01:09;;;;;;;;;;;20.00;95.20;;;;;;5093439;28;20076;-65
2023/06/14 07:03:35;;;;;;;;;;;20.10;95.00;;;;;;5095150;28;20352;-64
2023/06/14 07:06:00;;;;;;;;;;;20.00;94.70;;;;;;5095379;28;20437;-66
2023/06/14 07:08:26;;;;;;;;;;;20.10;94.90;;;;;;5093807;28;20083;-65
2023/06/14 07:10:52;;;;;;;;;;;20.20;94.90;;;;;;5093366;28;20454;-66
2023/06/14 07:13:18;;;;;;;;;;;20.30;94.30;;;;;;5092775;28;20001;-64
2023/06/14 07:15:43;;;;;;;;;;;20.40;94.30;;;;;;5093317;28;20035;-64
2023/06/14 07:18:09;;;;;;;;;;;20.40;94.50;;;;;;5094330;28;19982;-63
2023/06/14 07:20:35;;;;;;;;;;;20.50;93.90;;;;;;5087837;28;20498;-63
2023/06/14 07:23:00;;;;;;;;;;;20.50;93.90;;;;;;5074323;28;20060;-63
2023/06/14 07:25:26;;;;;;;;;;;20.50;94.10;;;;;;5073762;28;20012;-63
2023/06/14 07:27:51;;;;;;;;;;;20.50;93.50;;;;;;5074404;28;20111;-65
2023/06/14 07:30:17;;;;;;;;;;;20.50;93.40;;;;;;5074538;28;19982;-64
2023/06/14 07:32:43;;;;;;;;;;;20.50;93.40;;;;;;5074563;28;20051;-66
2023/06/14 07:35:08;;;;;;;;;;;20.60;93.30;;;;;;5074376;28;20378;-63
2023/06/14 07:37:34;;;;;;;;;;;20.60;93.20;;;;;;5094250;28;19989;-66
2023/06/14 07:40:00;;;;;;;;;;;20.50;94.50;;;;;;5094323;28;19996;-65
2023/06/14 07:42:25;;;;;;;;;;;20.50;95.40;;;;;;5094721;28;19988;-64
2023/06/14 07:44:52;;;;;;;;;;;20.60;93.90;;;;;;5092777;28;20013;-65
2023/06/14 07:47:18;;;;;;;;;;;20.60;93.90;;;;;;5094258;28;19988;-63
2023/06/14 07:49:43;;;;;;;;;;;20.60;93.40;;;;;;5094399;28;19981;-62
2023/06/14 07:52:09;;;;;;;;;;;20.70;93.50;;;;;;5094307;28;19989;-64
2023/06/14 07:54:34;;;;;;;;;;;20.70;93.60;;;;;;5092676;28;20004;-66
2023/06/14 07:57:00;;;;;;;;;;;20.80;93.60;;;;;;5093794;28;19981;-65
2023/06/14 07:59:29;;;;;;;;;;;20.90;92.90;;;;;;5093896;28;19985;-65
2023/06/14 08:01:58;;;;;;;;;;;21.00;92.90;;;;;;5092546;28;19982;-64
2023/06/14 08:04:25;;;;;;;;;;;21.00;92.60;;;;;;5092751;28;20121;-65
2023/06/14 08:06:50;;;;;;;;;;;21.10;92.60;;;;;;5092943;28;20011;-64
2023/06/14 08:09:16;;;;;;;;;;;21.10;92.80;;;;;;5093067;28;20391;-64
2023/06/14 08:11:42;;;;;;;;;;;21.10;93.40;;;;;;5093048;28;20004;-64
2023/06/14 08:14:08;;;;;;;;;;;21.10;92.70;;;;;;5092827;28;19982;-65
2023/06/14 08:16:33;;;;;;;;;;;21.00;93.00;;;;;;5093628;28;19981;-63
2023/06/14 08:18:59;;;;;;;;;;;21.00;92.80;;;;;;5092892;28;19981;-64
2023/06/14 08:21:28;;;;;;;;;;;21.10;93.20;;;;;;5093582;28;19995;-64
2023/06/14 08:23:57;;;;;;;;;;;21.00;93.60;;;;;;5092541;28;20017;-65
2023/06/14 08:26:23;;;;;;;;;;;21.00;93.30;;;;;;5092929;28;19985;-65
2023/06/14 08:28:48;;;;;;;;;;;21.10;93.90;;;;;;5092958;28;20393;-63
2023/06/14 08:31:14;;;;;;;;;;;21.10;93.20;;;;;;5093488;28;19985;-64
2023/06/14 08:33:43;;;;;;;;;;;21.10;93.60;;;;;;5091935;28;19996;-65
2023/06/14 08:36:08;;;;;;;;;;;21.10;93.90;;;;;;5093199;28;20026;-64
2023/06/14 08:38:34;;;;;;;;;;;21.20;93.70;;;;;;5092403;28;20019;-63
2023/06/14 08:41:00;;;;;;;;;;;21.20;93.50;;;;;;5072086;28;20440;-64
2023/06/14 08:43:26;;;;;;;;;;;21.20;93.30;;;;;;5071010;28;19986;-65
2023/06/14 08:45:57;;;;;;;;;;;21.20;93.50;;;;;;5070361;28;20016;-65
2023/06/14 08:48:23;;;;;;;;;;;21.20;93.40;;;;;;5087875;28;19989;-62
2023/06/14 08:50:53;;;;;;;;;;;21.20;93.30;;;;;;5091543;28;19981;-65
2023/06/14 08:53:19;;;;;;;;;;;21.40;93.80;;;;;;5090313;28;19985;-68
2023/06/14 08:55:45;;;;;;;;;;;21.40;93.50;;;;;;5090895;28;20485;-64
2023/06/14 08:58:14;;;;;;;;;;;21.40;92.40;;;;;;5070267;28;20024;-65
2023/06/14 09:00:41;;;;;;;;;;;21.50;92.30;;;;;;5069086;28;19989;-64
2023/06/14 09:03:12;;;;;;;;;;;21.60;92.90;;;;;;5079124;28;20017;-63
2023/06/14 09:05:38;;;;;;;;;;;21.70;92.60;;;;;;5090397;28;20059;-64
2023/06/14 09:08:05;;;;;;;;;;;21.60;92.70;;;;;;5089852;28;20013;-64
2023/06/14 09:10:33;;;;;;;;;;;21.60;92.60;;;;;;5089603;28;20367;-64
2023/06/14 09:13:00;;;;;;;;;;;21.70;92.40;;;;;;5095065;28;19981;-64
2023/06/14 09:15:29;;;;;;;;;;;21.80;92.10;;;;;;5094047;28;19992;-65
2023/06/14 09:17:55;;;;;;;;;;;21.90;92.60;;;;;;5094835;28;19989;-66
2023/06/14 09:20:23;;;;;;;;;;;22.00;91.30;;;;;;5094536;28;20340;-66
2023/06/14 09:22:49;;;;;;;;;;;22.00;91.20;;;;;;5095175;28;19982;-65
2023/06/14 09:25:15;;;;;;;;;;;22.10;91.00;;;;;;5096852;28;20099;-66
2023/06/14 09:27:41;;;;;;;;;;;22.20;91.20;;;;;;5093970;28;20074;-65
2023/06/14 09:30:09;;;;;;;;;;;22.20;90.90;;;;;;5076201;28;19985;-65
2023/06/14 09:32:38;;;;;;;;;;;22.30;90.80;;;;;;5075544;28;20059;-65
2023/06/14 09:35:05;;;;;;;;;;;22.40;90.40;;;;;;5074948;28;20076;-63
2023/06/14 09:37:31;;;;;;;;;;;22.60;90.10;;;;;;5074368;28;20455;-64
2023/06/14 09:39:58;;;;;;;;;;;22.60;91.70;;;;;;5073462;28;19993;-64
2023/06/14 09:42:25;;;;;;;;;;;22.60;91.70;;;;;;5074458;28;19982;-65
2023/06/14 09:44:52;;;;;;;;;;;22.70;91.20;;;;;;5074993;28;20017;-64
2023/06/14 09:47:18;;;;;;;;;;;22.70;92.00;;;;;;5075668;28;20068;-66
2023/06/14 09:49:43;;;;;;;;;;;22.70;90.40;;;;;;5075889;28;20086;-62
2023/06/14 09:52:16;;;;;;;;;;;22.80;90.10;;;;;;5074493;28;19985;-66
2023/06/14 09:54:43;;;;;;;;;;;22.90;84.80;;;;;;5074842;28;19982;-66
2023/06/14 09:57:11;;;;;;;;;;;22.90;82.60;;;;;;5075615;28;19986;-65
2023/06/14 09:59:39;;;;;;;;;;;23.00;82.70;;;;;;5075484;28;19982;-66
2023/06/14 10:02:07;;;;;;;;;;;23.00;80.90;;;;;;5074715;28;20398;-64
2023/06/14 10:04:34;;;;;;;;;;;23.10;82.60;;;;;;5074211;28;20091;-66
2023/06/14 10:07:01;;;;;;;;;;;23.20;80.50;;;;;;5074540;28;20040;-66
2023/06/14 10:09:27;;;;;;;;;;;23.20;82.00;;;;;;5075005;28;19986;-65
2023/06/14 10:11:52;;;;;;;;;;;23.30;80.20;;;;;;5075522;28;19981;-66
2023/06/14 10:14:18;;;;;;;;;;;23.40;77.50;;;;;;5074149;28;19985;-66
2023/06/14 10:16:59;;;;;;;;;;;23.40;79.60;;;;;;5076486;28;19997;-65
2023/06/14 10:19:27;;;;;;;;;;;23.40;80.90;;;;;;5093246;28;20099;-66
2023/06/14 10:22:04;;;;;;;;;;;23.40;80.50;;;;;;5095579;28;19981;-64
2023/06/14 10:24:33;;;;;;;;;;;23.50;79.60;;;;;;5095949;28;20420;-65
2023/06/14 10:27:02;;;;;;;;;;;23.60;79.70;;;;;;5094984;28;20075;-64
2023/06/14 10:29:32;;;;;;;;;;;23.80;79.30;;;;;;5095675;28;19981;-65
2023/06/14 10:31:58;;;;;;;;;;;23.90;75.70;;;;;;5095106;28;20024;-64
2023/06/14 10:34:25;;;;;;;;;;;23.90;79.70;;;;;;5095997;28;20096;-63
2023/06/14 10:37:02;;;;;;;;;;;24.10;78.40;;;;;;5096088;28;20038;-63
2023/06/14 10:39:28;;;;;;;;;;;24.30;78.70;;;;;;5093417;28;20390;-62
2023/06/14 10:41:55;;;;;;;;;;;24.50;81.70;;;;;;5093931;28;20000;-62
2023/06/14 10:44:20;;;;;;;;;;;24.70;79.90;;;;;;5093875;28;20009;-63
2023/06/14 10:46:46;;;;;;;;;;;24.80;78.50;;;;;;5094861;28;19981;-63
2023/06/14 10:49:12;;;;;;;;;;;24.90;76.70;;;;;;5093002;28;19981;-62
2023/06/14 10:51:46;;;;;;;;;;;24.80;76.00;;;;;;5076436;28;19996;-64
2023/06/14 10:54:14;;;;;;;;;;;24.70;76.40;;;;;;5074464;28;20064;-64
2023/06/14 10:56:50;;;;;;;;;;;24.60;75.80;;;;;;5073230;28;20364;-62
2023/06/14 10:59:16;;;;;;;;;;;24.50;77.50;;;;;;5074001;28;19981;-63
2023/06/14 11:01:53;;;;;;;;;;;24.60;77.00;;;;;;5073842;28;19982;-63
2023/06/14 11:04:20;;;;;;;;;;;24.70;76.20;;;;;;5074227;28;20017;-63
2023/06/14 11:06:47;;;;;;;;;;;24.60;74.20;;;;;;5073429;28;20451;-64
2023/06/14 11:09:32;;;;;;;;;;;24.40;75.10;;;;;;5073135;28;20048;-64
2023/06/14 11:11:58;;;;;;;;;;;24.50;78.80;;;;;;5072901;28;19985;-64
2023/06/14 11:14:24;;;;;;;;;;;24.60;74.90;;;;;;5072927;28;20024;-65
2023/06/14 11:16:50;;;;;;;;;;;24.60;75.40;;;;;;5073919;28;20074;-63
2023/06/14 11:19:17;;;;;;;;;;;24.60;75.50;;;;;;5074361;28;20076;-62
2023/06/14 11:21:46;;;;;;;;;;;24.80;74.50;;;;;;5074371;28;20025;-63
2023/06/14 11:24:12;;;;;;;;;;;24.90;74.20;;;;;;5073221;28;20013;-65
2023/06/14 11:26:38;;;;;;;;;;;25.10;74.10;;;;;;5073874;28;20451;-63
2023/06/14 11:29:03;;;;;;;;;;;25.00;73.60;;;;;;5074163;28;20355;-63
2023/06/14 11:31:29;;;;;;;;;;;25.30;75.70;;;;;;5074310;28;19981;-64
2023/06/14 11:33:56;;;;;;;;;;;25.80;75.40;;;;;;5073692;28;20011;-64
2023/06/14 11:36:22;;;;;;;;;;;26.10;73.50;;;;;;5074368;28;19981;-63
2023/06/14 11:38:48;;;;;;;;;;;26.20;72.80;;;;;;5074347;28;20475;-63
2023/06/14 11:41:14;;;;;;;;;;;26.40;73.50;;;;;;5074589;28;20028;-63
2023/06/14 11:43:40;;;;;;;;;;;26.80;73.50;;;;;;5074447;28;19993;-64
2023/06/14 11:46:12;;;;;;;;;;;26.70;73.10;;;;;;5074299;28;20009;-64
2023/06/14 11:48:38;;;;;;;;;;;26.60;70.20;;;;;;5074352;28;19985;-64
2023/06/14 11:51:04;;;;;;;;;;;26.30;73.00;;;;;;5074555;28;19986;-65
2023/06/14 11:53:30;;;;;;;;;;;26.40;72.50;;;;;;5074178;28;19993;-63
2023/06/14 11:55:56;;;;;;;;;;;26.50;71.80;;;;;;5074529;28;20347;-63
2023/06/14 11:58:22;;;;;;;;;;;26.80;75.00;;;;;;5074021;28;19993;-64
2023/06/14 12:00:51;;;;;;;;;;;27.20;71.40;;;;;;5074312;28;19986;-64
2023/06/14 12:03:16;;;;;;;;;;;27.50;72.10;;;;;;5073986;28;20502;-65
2023/06/14 12:05:42;;;;;;;;;;;27.80;67.90;;;;;;5074220;28;20017;-67
2023/06/14 12:08:07;;;;;;;;;;;27.60;71.00;;;;;;5074256;28;20007;-64
2023/06/14 12:10:40;;;;;;;;;;;27.50;68.50;;;;;;5074332;28;19985;-63
2023/06/14 12:13:06;;;;;;;;;;;27.80;70.70;;;;;;5073857;28;20071;-67
2023/06/14 12:15:32;;;;;;;;;;;27.80;67.20;;;;;;5074133;28;20028;-65
2023/06/14 12:17:57;;;;;;;;;;;27.10;67.80;;;;;;5074236;28;19985;-64
2023/06/14 12:20:28;;;;;;;;;;;26.60;70.30;;;;;;5073927;28;20493;-65
2023/06/14 12:22:56;;;;;;;;;;;26.60;70.00;;;;;;5073812;28;20443;-64
2023/06/14 12:25:35;;;;;;;;;;;26.80;70.70;;;;;;5073744;28;20107;-64
2023/06/14 12:28:07;;;;;;;;;;;27.60;71.50;;;;;;5073650;28;19985;-65
2023/06/14 12:30:33;;;;;;;;;;;28.30;67.30;;;;;;5074069;28;19985;-64
2023/06/14 12:33:00;;;;;;;;;;;28.60;67.40;;;;;;5073745;28;20037;-64
2023/06/14 12:35:25;;;;;;;;;;;28.60;68.60;;;;;;5073997;28;20035;-64
2023/06/14 12:37:51;;;;;;;;;;;28.80;67.40;;;;;;5073699;28;20458;-63
2023/06/14 12:40:17;;;;;;;;;;;28.80;64.20;;;;;;5073993;28;20343;-64
2023/06/14 12:42:42;;;;;;;;;;;28.60;66.10;;;;;;5073619;28;19986;-66
2023/06/14 12:45:08;;;;;;;;;;;28.90;66.10;;;;;;5073222;28;20090;-65
2023/06/14 12:47:34;;;;;;;;;;;29.30;67.80;;;;;;5073702;28;19981;-65
2023/06/14 12:49:59;;;;;;;;;;;29.40;66.50;;;;;;5073637;28;20394;-64
2023/06/14 12:52:25;;;;;;;;;;;29.70;63.80;;;;;;5073519;28;20021;-66
2023/06/14 12:54:50;;;;;;;;;;;29.80;63.10;;;;;;5073538;28;19986;-65
2023/06/14 12:57:16;;;;;;;;;;;30.10;63.40;;;;;;5073390;28;19982;-65
2023/06/14 12:59:41;;;;;;;;;;;30.30;65.80;;;;;;5073447;28;19988;-66
2023/06/14 13:02:11;;;;;;;;;;;30.60;62.90;;;;;;5073444;28;20027;-64
2023/06/14 13:04:37;;;;;;;;;;;30.90;62.10;;;;;;5073437;28;20005;-65
2023/06/14 13:07:02;;;;;;;;;;;31.20;61.60;;;;;;5073304;28;20426;-64
2023/06/14 13:09:28;;;;;;;;;;;31.30;61.30;;;;;;5073416;28;20447;-63
2023/06/14 13:11:53;;;;;;;;;;;31.50;60.60;;;;;;5073279;28;19981;-64
2023/06/14 13:14:19;;;;;;;;;;;31.40;59.40;;;;;;5073671;28;20047;-65
2023/06/14 13:16:44;;;;;;;;;;;30.80;57.90;;;;;;5073270;28;20436;-64
2023/06/14 13:19:10;;;;;;;;;;;30.90;59.90;;;;;;5073325;28;20009;-65
2023/06/14 13:21:35;;;;;;;;;;;31.10;62.60;;;;;;5073565;28;19985;-64
2023/06/14 13:24:01;;;;;;;;;;;31.50;59.60;;;;;;5073059;28;20051;-63
2023/06/14 13:26:26;;;;;;;;;;;31.60;59.00;;;;;;5073154;28;20528;-64
2023/06/14 13:28:52;;;;;;;;;;;31.20;56.50;;;;;;5073193;28;20513;-61
2023/06/14 13:31:18;;;;;;;;;;;31.00;57.60;;;;;;5073124;28;19988;-62
2023/06/14 13:33:43;;;;;;;;;;;31.10;61.10;;;;;;5073158;28;20029;-64
2023/06/14 13:36:10;;;;;;;;;;;31.00;59.80;;;;;;5073409;28;19986;-64
2023/06/14 13:38:35;;;;;;;;;;;30.90;56.70;;;;;;5073077;28;20474;-65
2023/06/14 13:41:01;;;;;;;;;;;31.20;59.00;;;;;;5073069;28;19986;-65
2023/06/14 13:43:26;;;;;;;;;;;31.30;56.60;;;;;;5073098;28;20016;-65
2023/06/14 13:45:52;;;;;;;;;;;31.00;57.40;;;;;;5072942;28;20005;-64
2023/06/14 13:48:18;;;;;;;;;;;30.50;58.60;;;;;;5072918;28;19989;-63
2023/06/14 13:50:44;;;;;;;;;;;30.40;58.80;;;;;;5073137;28;19981;-65
2023/06/14 13:53:09;;;;;;;;;;;30.60;58.70;;;;;;5073204;28;19985;-62
2023/06/14 13:55:35;;;;;;;;;;;30.70;60.60;;;;;;5072724;28;19981;-61
2023/06/14 13:58:01;;;;;;;;;;;30.90;58.00;;;;;;5075275;28;19989;-63
2023/06/14 14:00:26;;;;;;;;;;;31.00;56.80;;;;;;5076396;28;19985;-60
2023/06/14 14:02:52;;;;;;;;;;;30.80;57.40;;;;;;5076370;28;20053;-63
2023/06/14 14:05:17;;;;;;;;;;;30.50;56.50;;;;;;5076364;28;20063;-62
2023/06/14 14:07:43;;;;;;;;;;;30.20;57.70;;;;;;5076359;28;19992;-62
2023/06/14 14:10:09;;;;;;;;;;;30.10;57.00;;;;;;5076404;28;19986;-62
2023/06/14 14:12:35;;;;;;;;;;;30.10;59.00;;;;;;5076550;28;20378;-61